EBLB

Elsenborn Airport

Bütgenbach, Belgium
METAR EBLB 180813Z AUTO 24003KT 9999 FEW017/// BKN032/// 16/12 Q1022 BLU
Observed Flight Rules
Jun-18 @ 08:13 UTC (3 hours ago) Visual Flight Rules
Wind Visibility Clouds
240° at 3 knots 10,000+ meters
  • Few at 1,700' AGL
  • Broken at 3,200' AGL
Temperatures Readings
Current 16°C / 61°F
Dewpoint 12°C / 54°F
Humidity 77%
Altimeter 30.18" Hg
Pressure 1022 hPa
Elevation 570
METAR EBLB 180813Z AUTO 24003KT 9999 FEW017/// BKN032/// 16/12 Q1022 BLU
Observed Flight Rules
Jun-18 @ 08:13 UTC
(3 hours ago)
VFR
Wind Visibility
240° at 3 knots 10,000+ meters
Clouds
  • Few at 1,700' AGL
  • Broken at 3,200' AGL
Temperature Dewpoint
16°C / 61°F 12°C / 54°F
Humidity Altimeter Pressure
77% 30.18" Hg 1022 hPa